sensor_id;sensor_type;location;lat;lon;timestamp;pressure;altitude;pressure_sealevel;temperature;humidity
65758;BME280;52495;52.208;5.158;2022-08-06T00:01:12;102544.59;;;14.41;64.73
65758;BME280;52495;52.208;5.158;2022-08-06T00:03:41;102542.06;;;14.33;64.63
65758;BME280;52495;52.208;5.158;2022-08-06T00:06:08;102545.56;;;14.24;65.32
65758;BME280;52495;52.208;5.158;2022-08-06T00:08:34;102542.09;;;14.22;65.31
65758;BME280;52495;52.208;5.158;2022-08-06T00:11:02;102548.19;;;14.15;65.26
65758;BME280;52495;52.208;5.158;2022-08-06T00:13:29;102550.84;;;14.09;65.61
65758;BME280;52495;52.208;5.158;2022-08-06T00:15:59;102561.22;;;14.06;66.20
65758;BME280;52495;52.208;5.158;2022-08-06T00:18:25;102556.03;;;14.04;66.00
65758;BME280;52495;52.208;5.158;2022-08-06T00:20:52;102559.50;;;14.02;66.48
65758;BME280;52495;52.208;5.158;2022-08-06T00:23:19;102557.78;;;13.99;66.12
65758;BME280;52495;52.208;5.158;2022-08-06T00:25:45;102566.44;;;14.03;66.18
65758;BME280;52495;52.208;5.158;2022-08-06T00:28:13;102559.50;;;14.02;65.61
65758;BME280;52495;52.208;5.158;2022-08-06T00:30:40;102565.56;;;14.02;65.63
65758;BME280;52495;52.208;5.158;2022-08-06T00:33:07;102561.25;;;13.98;65.71
65758;BME280;52495;52.208;5.158;2022-08-06T00:35:34;102569.06;;;13.98;65.77
65758;BME280;52495;52.208;5.158;2022-08-06T00:38:00;102570.78;;;13.99;65.46
65758;BME280;52495;52.208;5.158;2022-08-06T00:40:28;102572.50;;;13.95;65.34
65758;BME280;52495;52.208;5.158;2022-08-06T00:42:56;102581.19;;;13.91;65.93
65758;BME280;52495;52.208;5.158;2022-08-06T00:45:25;102580.34;;;13.86;65.67
65758;BME280;52495;52.208;5.158;2022-08-06T00:47:51;102585.53;;;13.86;65.78
65758;BME280;52495;52.208;5.158;2022-08-06T00:50:19;102587.28;;;13.83;65.73
65758;BME280;52495;52.208;5.158;2022-08-06T00:52:46;102594.22;;;13.77;65.71
65758;BME280;52495;52.208;5.158;2022-08-06T00:55:13;102599.41;;;13.68;66.25
65758;BME280;52495;52.208;5.158;2022-08-06T00:57:40;102589.91;;;13.64;66.70
65758;BME280;52495;52.208;5.158;2022-08-06T01:00:08;102598.56;;;13.57;66.96
65758;BME280;52495;52.208;5.158;2022-08-06T01:02:36;102597.72;;;13.50;67.34
65758;BME280;52495;52.208;5.158;2022-08-06T01:05:03;102600.28;;;13.36;67.82
65758;BME280;52495;52.208;5.158;2022-08-06T01:07:30;102603.75;;;13.33;68.29
65758;BME280;52495;52.208;5.158;2022-08-06T01:09:57;102604.63;;;13.42;68.65
65758;BME280;52495;52.208;5.158;2022-08-06T01:12:25;102610.69;;;13.48;68.49
65758;BME280;52495;52.208;5.158;2022-08-06T01:14:52;102607.22;;;13.57;68.18
65758;BME280;52495;52.208;5.158;2022-08-06T01:17:24;102611.53;;;13.57;67.99
65758;BME280;52495;52.208;5.158;2022-08-06T01:19:58;102608.09;;;13.56;68.33
65758;BME280;52495;52.208;5.158;2022-08-06T01:23:01;102603.75;;;13.52;68.27
65758;BME280;52495;52.208;5.158;2022-08-06T01:25:46;102609.81;;;13.56;67.30
65758;BME280;52495;52.208;5.158;2022-08-06T01:28:23;102606.38;;;13.55;67.33
65758;BME280;52495;52.208;5.158;2022-08-06T01:30:56;102608.97;;;13.49;66.89
65758;BME280;52495;52.208;5.158;2022-08-06T01:33:26;102616.72;;;13.40;67.40
65758;BME280;52495;52.208;5.158;2022-08-06T01:36:00;102619.31;;;13.33;67.69
65758;BME280;52495;52.208;5.158;2022-08-06T01:38:32;102619.28;;;13.24;67.96
65758;BME280;52495;52.208;5.158;2022-08-06T01:41:04;102612.41;;;13.23;68.43
65758;BME280;52495;52.208;5.158;2022-08-06T01:43:34;102616.72;;;13.23;68.69
65758;BME280;52495;52.208;5.158;2022-08-06T01:46:02;102613.25;;;13.24;68.93
65758;BME280;52495;52.208;5.158;2022-08-06T01:48:30;102613.25;;;13.27;68.75
65758;BME280;52495;52.208;5.158;2022-08-06T01:51:01;102618.44;;;13.28;68.58
65758;BME280;52495;52.208;5.158;2022-08-06T01:53:31;102613.28;;;13.30;68.44
65758;BME280;52495;52.208;5.158;2022-08-06T01:56:01;102615.00;;;13.31;67.64
65758;BME280;52495;52.208;5.158;2022-08-06T01:58:30;102626.22;;;13.28;67.83
65758;BME280;52495;52.208;5.158;2022-08-06T02:01:02;102621.03;;;13.25;67.58
65758;BME280;52495;52.208;5.158;2022-08-06T02:03:33;102622.78;;;13.20;67.73
65758;BME280;52495;52.208;5.158;2022-08-06T02:06:02;102623.63;;;13.11;68.00
65758;BME280;52495;52.208;5.158;2022-08-06T02:08:33;102627.06;;;13.07;68.56
65758;BME280;52495;52.208;5.158;2022-08-06T02:11:02;102629.66;;;13.01;68.51
65758;BME280;52495;52.208;5.158;2022-08-06T02:13:30;102631.41;;;13.05;68.69
65758;BME280;52495;52.208;5.158;2022-08-06T02:15:58;102638.31;;;13.03;68.62
65758;BME280;52495;52.208;5.158;2022-08-06T02:18:29;102637.44;;;13.01;68.71
65758;BME280;52495;52.208;5.158;2022-08-06T02:21:01;102629.66;;;12.96;69.19
65758;BME280;52495;52.208;5.158;2022-08-06T02:23:29;102636.56;;;12.94;69.24
65758;BME280;52495;52.208;5.158;2022-08-06T02:25:57;102632.25;;;12.92;69.26
65758;BME280;52495;52.208;5.158;2022-08-06T02:28:26;102632.25;;;12.92;69.50
65758;BME280;52495;52.208;5.158;2022-08-06T02:30:56;102633.09;;;12.87;69.63
65758;BME280;52495;52.208;5.158;2022-08-06T02:33:23;102638.28;;;12.83;69.58
65758;BME280;52495;52.208;5.158;2022-08-06T02:35:56;102633.94;;;12.79;70.04
65758;BME280;52495;52.208;5.158;2022-08-06T02:38:29;102639.09;;;12.72;70.33
65758;BME280;52495;52.208;5.158;2022-08-06T02:41:01;102638.25;;;12.72;70.25
65758;BME280;52495;52.208;5.158;2022-08-06T02:43:33;102637.41;;;12.76;70.32
65758;BME280;52495;52.208;5.158;2022-08-06T02:46:07;102641.72;;;12.77;70.45
65758;BME280;52495;52.208;5.158;2022-08-06T02:48:40;102638.25;;;12.77;70.34
65758;BME280;52495;52.208;5.158;2022-08-06T02:51:12;102633.94;;;12.79;69.82
65758;BME280;52495;52.208;5.158;2022-08-06T02:53:48;102633.09;;;12.78;69.99
65758;BME280;52495;52.208;5.158;2022-08-06T02:56:22;102635.66;;;12.80;69.99
65758;BME280;52495;52.208;5.158;2022-08-06T02:58:51;102643.44;;;12.77;69.86
65758;BME280;52495;52.208;5.158;2022-08-06T03:01:22;102634.81;;;12.76;69.96
65758;BME280;52495;52.208;5.158;2022-08-06T03:03:53;102639.13;;;12.74;70.06
65758;BME280;52495;52.208;5.158;2022-08-06T03:06:24;102638.25;;;12.81;70.24
65758;BME280;52495;52.208;5.158;2022-08-06T03:08:54;102641.72;;;12.83;70.27
65758;BME280;52495;52.208;5.158;2022-08-06T03:11:22;102636.53;;;12.86;70.22
65758;BME280;52495;52.208;5.158;2022-08-06T03:13:50;102645.19;;;12.85;70.01
65758;BME280;52495;52.208;5.158;2022-08-06T03:16:18;102645.19;;;12.85;70.03
65758;BME280;52495;52.208;5.158;2022-08-06T03:18:46;102647.78;;;12.87;70.12
65758;BME280;52495;52.208;5.158;2022-08-06T03:21:16;102652.13;;;12.88;69.94
65758;BME280;52495;52.208;5.158;2022-08-06T03:23:44;102659.88;;;12.89;69.88
65758;BME280;52495;52.208;5.158;2022-08-06T03:26:12;102658.16;;;12.88;70.21
65758;BME280;52495;52.208;5.158;2022-08-06T03:28:39;102649.50;;;12.86;70.43
65758;BME280;52495;52.208;5.158;2022-08-06T03:31:07;102653.84;;;12.87;70.49
65758;BME280;52495;52.208;5.158;2022-08-06T03:33:35;102653.84;;;12.86;70.58
65758;BME280;52495;52.208;5.158;2022-08-06T03:36:03;102656.41;;;12.84;70.83
65758;BME280;52495;52.208;5.158;2022-08-06T03:38:34;102659.00;;;12.87;70.40
65758;BME280;52495;52.208;5.158;2022-08-06T03:41:06;102656.41;;;12.87;70.89
65758;BME280;52495;52.208;5.158;2022-08-06T03:43:34;102660.72;;;12.85;70.52
65758;BME280;52495;52.208;5.158;2022-08-06T03:46:02;102665.03;;;12.83;71.11
65758;BME280;52495;52.208;5.158;2022-08-06T03:48:34;102660.72;;;12.82;71.36
65758;BME280;52495;52.208;5.158;2022-08-06T03:51:03;102665.06;;;12.86;71.09
65758;BME280;52495;52.208;5.158;2022-08-06T03:53:32;102665.91;;;12.76;71.45
65758;BME280;52495;52.208;5.158;2022-08-06T03:56:06;102661.59;;;12.75;71.73
65758;BME280;52495;52.208;5.158;2022-08-06T03:58:37;102671.94;;;12.72;71.81
65758;BME280;52495;52.208;5.158;2022-08-06T04:01:06;102671.91;;;12.73;71.66
65758;BME280;52495;52.208;5.158;2022-08-06T04:03:34;102668.47;;;12.73;71.17
65758;BME280;52495;52.208;5.158;2022-08-06T04:06:02;102665.88;;;12.68;71.59
65758;BME280;52495;52.208;5.158;2022-08-06T04:08:31;102675.38;;;12.62;71.80
65758;BME280;52495;52.208;5.158;2022-08-06T04:10:59;102677.09;;;12.64;71.60
65758;BME280;52495;52.208;5.158;2022-08-06T04:13:28;102681.41;;;12.64;71.29
65758;BME280;52495;52.208;5.158;2022-08-06T04:15:56;102677.09;;;12.63;71.15
65758;BME280;52495;52.208;5.158;2022-08-06T04:18:27;102679.66;;;12.59;71.40
65758;BME280;52495;52.208;5.158;2022-08-06T04:20:56;102672.72;;;12.57;71.42
65758;BME280;52495;52.208;5.158;2022-08-06T04:23:24;102685.69;;;12.55;71.73
65758;BME280;52495;52.208;5.158;2022-08-06T04:25:53;102689.13;;;12.54;71.55
65758;BME280;52495;52.208;5.158;2022-08-06T04:28:23;102683.94;;;12.47;71.62
65758;BME280;52495;52.208;5.158;2022-08-06T04:30:52;102688.25;;;12.48;72.00
65758;BME280;52495;52.208;5.158;2022-08-06T04:33:23;102684.75;;;12.42;72.44
65758;BME280;52495;52.208;5.158;2022-08-06T04:35:54;102683.03;;;12.40;72.68
65758;BME280;52495;52.208;5.158;2022-08-06T04:38:23;102690.78;;;12.41;73.17
65758;BME280;52495;52.208;5.158;2022-08-06T04:40:50;102689.09;;;12.43;73.13
65758;BME280;52495;52.208;5.158;2022-08-06T04:43:18;102689.97;;;12.47;73.00
65758;BME280;52495;52.208;5.158;2022-08-06T04:45:45;102695.19;;;12.52;72.74
65758;BME280;52495;52.208;5.158;2022-08-06T04:48:14;102697.78;;;12.52;72.74
65758;BME280;52495;52.208;5.158;2022-08-06T04:50:42;102690.88;;;12.54;72.53
65758;BME280;52495;52.208;5.158;2022-08-06T04:53:10;102702.09;;;12.53;72.77
65758;BME280;52495;52.208;5.158;2022-08-06T04:55:37;102702.09;;;12.54;72.70
65758;BME280;52495;52.208;5.158;2022-08-06T04:58:07;102703.84;;;12.54;73.20
65758;BME280;52495;52.208;5.158;2022-08-06T05:00:36;102709.88;;;12.54;73.12
65758;BME280;52495;52.208;5.158;2022-08-06T05:03:03;102706.44;;;12.54;73.02
65758;BME280;52495;52.208;5.158;2022-08-06T05:05:35;102716.81;;;12.58;73.26
65758;BME280;52495;52.208;5.158;2022-08-06T05:08:05;102716.81;;;12.58;73.38
65758;BME280;52495;52.208;5.158;2022-08-06T05:10:36;102711.66;;;12.66;73.47
65758;BME280;52495;52.208;5.158;2022-08-06T05:13:05;102718.59;;;12.77;72.85
65758;BME280;52495;52.208;5.158;2022-08-06T05:15:36;102709.97;;;12.82;72.94
65758;BME280;52495;52.208;5.158;2022-08-06T05:18:07;102718.66;;;12.90;72.82
65758;BME280;52495;52.208;5.158;2022-08-06T05:20:40;102723.00;;;12.98;72.73
65758;BME280;52495;52.208;5.158;2022-08-06T05:23:12;102723.88;;;13.03;73.21
65758;BME280;52495;52.208;5.158;2022-08-06T05:25:40;102730.81;;;13.10;73.28
65758;BME280;52495;52.208;5.158;2022-08-06T05:28:07;102733.44;;;13.18;73.07
65758;BME280;52495;52.208;5.158;2022-08-06T05:30:41;102723.91;;;13.21;73.38
65758;BME280;52495;52.208;5.158;2022-08-06T05:33:08;102730.84;;;13.30;73.54
65758;BME280;52495;52.208;5.158;2022-08-06T05:35:36;102736.97;;;13.40;73.80
65758;BME280;52495;52.208;5.158;2022-08-06T05:38:03;102736.97;;;13.51;73.58
65758;BME280;52495;52.208;5.158;2022-08-06T05:40:30;102738.72;;;13.60;74.12
65758;BME280;52495;52.208;5.158;2022-08-06T05:43:00;102742.16;;;13.68;73.97
65758;BME280;52495;52.208;5.158;2022-08-06T05:45:27;102743.91;;;13.75;74.47
65758;BME280;52495;52.208;5.158;2022-08-06T05:47:55;102744.78;;;13.85;74.61
65758;BME280;52495;52.208;5.158;2022-08-06T05:50:28;102744.78;;;13.93;74.79
65758;BME280;52495;52.208;5.158;2022-08-06T05:53:02;102745.63;;;14.06;74.73
65758;BME280;52495;52.208;5.158;2022-08-06T05:55:34;102744.75;;;14.19;74.93
65758;BME280;52495;52.208;5.158;2022-08-06T05:58:07;102743.84;;;14.33;75.05
65758;BME280;52495;52.208;5.158;2022-08-06T06:00:37;102742.06;;;14.47;75.13
65758;BME280;52495;52.208;5.158;2022-08-06T06:03:06;102748.94;;;14.61;75.21
65758;BME280;52495;52.208;5.158;2022-08-06T06:05:35;102744.63;;;14.74;75.24
65758;BME280;52495;52.208;5.158;2022-08-06T06:08:04;102744.56;;;14.87;74.89
65758;BME280;52495;52.208;5.158;2022-08-06T06:10:32;102741.91;;;15.00;74.89
65758;BME280;52495;52.208;5.158;2022-08-06T06:12:59;102755.69;;;15.16;74.07
65758;BME280;52495;52.208;5.158;2022-08-06T06:15:27;102752.16;;;15.28;73.83
65758;BME280;52495;52.208;5.158;2022-08-06T06:18:04;102757.28;;;15.40;73.13
65758;BME280;52495;52.208;5.158;2022-08-06T06:20:40;102753.75;;;15.52;72.75
65758;BME280;52495;52.208;5.158;2022-08-06T06:23:17;102754.50;;;15.63;72.30
65758;BME280;52495;52.208;5.158;2022-08-06T06:25:46;102763.09;;;15.72;73.02
65758;BME280;52495;52.208;5.158;2022-08-06T06:28:22;102767.38;;;15.82;72.17
65758;BME280;52495;52.208;5.158;2022-08-06T06:30:57;102769.97;;;15.88;72.10
65758;BME280;52495;52.208;5.158;2022-08-06T06:33:28;102772.53;;;15.96;72.06
65758;BME280;52495;52.208;5.158;2022-08-06T06:36:03;102771.56;;;16.05;71.43
65758;BME280;52495;52.208;5.158;2022-08-06T06:38:38;102769.78;;;16.12;70.93
65758;BME280;52495;52.208;5.158;2022-08-06T06:41:12;102766.19;;;16.22;70.86
65758;BME280;52495;52.208;5.158;2022-08-06T06:43:45;102773.03;;;16.32;70.36
65758;BME280;52495;52.208;5.158;2022-08-06T06:46:19;102769.44;;;16.41;70.02
65758;BME280;52495;52.208;5.158;2022-08-06T06:48:49;102770.22;;;16.51;70.04
65758;BME280;52495;52.208;5.158;2022-08-06T06:51:26;102776.22;;;16.59;69.01
65758;BME280;52495;52.208;5.158;2022-08-06T06:53:56;102776.94;;;16.71;68.04
65758;BME280;52495;52.208;5.158;2022-08-06T06:56:24;102770.78;;;16.76;66.94
65758;BME280;52495;52.208;5.158;2022-08-06T06:58:56;102772.47;;;16.83;66.51
65758;BME280;52495;52.208;5.158;2022-08-06T07:01:23;102772.41;;;16.85;64.73
65758;BME280;52495;52.208;5.158;2022-08-06T07:03:52;102766.13;;;17.06;63.30
65758;BME280;52495;52.208;5.158;2022-08-06T07:06:20;102765.34;;;16.98;62.80
65758;BME280;52495;52.208;5.158;2022-08-06T07:08:48;102773.78;;;17.17;62.84
65758;BME280;52495;52.208;5.158;2022-08-06T07:11:20;102777.16;;;17.25;61.84
65758;BME280;52495;52.208;5.158;2022-08-06T07:13:50;102778.63;;;17.45;61.22
65758;BME280;52495;52.208;5.158;2022-08-06T07:16:19;102774.22;;;17.47;60.89
65758;BME280;52495;52.208;5.158;2022-08-06T07:18:47;102785.56;;;17.46;61.51
65758;BME280;52495;52.208;5.158;2022-08-06T07:21:15;102784.44;;;17.61;60.02
65758;BME280;52495;52.208;5.158;2022-08-06T07:23:44;102785.41;;;17.57;59.24
65758;BME280;52495;52.208;5.158;2022-08-06T07:26:13;102785.28;;;17.63;59.59
65758;BME280;52495;52.208;5.158;2022-08-06T07:28:42;102792.16;;;17.70;59.78
65758;BME280;52495;52.208;5.158;2022-08-06T07:31:09;102798.38;;;17.60;59.47
65758;BME280;52495;52.208;5.158;2022-08-06T07:33:40;102795.63;;;17.71;58.79
65758;BME280;52495;52.208;5.158;2022-08-06T07:36:07;102799.94;;;17.72;59.23
65758;BME280;52495;52.208;5.158;2022-08-06T07:38:37;102792.78;;;17.85;58.82
65758;BME280;52495;52.208;5.158;2022-08-06T07:41:08;102800.59;;;17.88;58.73
65758;BME280;52495;52.208;5.158;2022-08-06T07:43:40;102794.34;;;17.95;58.88
65758;BME280;52495;52.208;5.158;2022-08-06T07:46:13;102797.22;;;17.80;58.97
65758;BME280;52495;52.208;5.158;2022-08-06T07:48:45;102791.56;;;18.08;58.64
65758;BME280;52495;52.208;5.158;2022-08-06T07:51:13;102792.28;;;18.17;57.68
65758;BME280;52495;52.208;5.158;2022-08-06T07:53:42;102792.19;;;18.22;56.30
65758;BME280;52495;52.208;5.158;2022-08-06T07:56:09;102801.41;;;18.42;55.69
65758;BME280;52495;52.208;5.158;2022-08-06T07:58:37;102806.81;;;18.32;54.51
65758;BME280;52495;52.208;5.158;2022-08-06T08:01:05;102796.25;;;18.37;53.25
65758;BME280;52495;52.208;5.158;2022-08-06T08:03:36;102805.13;;;18.28;54.12
65758;BME280;52495;52.208;5.158;2022-08-06T08:06:21;102803.84;;;18.51;52.12
65758;BME280;52495;52.208;5.158;2022-08-06T08:08:54;102806.34;;;18.57;51.62
65758;BME280;52495;52.208;5.158;2022-08-06T08:11:21;102810.50;;;18.20;52.85
65758;BME280;52495;52.208;5.158;2022-08-06T08:13:52;102811.94;;;18.37;53.19
65758;BME280;52495;52.208;5.158;2022-08-06T08:16:20;102806.06;;;18.26;53.27
65758;BME280;52495;52.208;5.158;2022-08-06T08:18:48;102807.34;;;18.50;53.12
65758;BME280;52495;52.208;5.158;2022-08-06T08:21:15;102807.03;;;18.67;51.94
65758;BME280;52495;52.208;5.158;2022-08-06T08:23:43;102809.19;;;18.90;50.88
65758;BME280;52495;52.208;5.158;2022-08-06T08:26:10;102804.44;;;18.65;51.70
65758;BME280;52495;52.208;5.158;2022-08-06T08:28:36;102805.88;;;18.80;51.29
65758;BME280;52495;52.208;5.158;2022-08-06T08:31:03;102805.63;;;18.93;51.60
65758;BME280;52495;52.208;5.158;2022-08-06T08:33:31;102811.38;;;19.12;50.17
65758;BME280;52495;52.208;5.158;2022-08-06T08:36:00;102811.34;;;19.14;49.23
65758;BME280;52495;52.208;5.158;2022-08-06T08:38:31;102801.94;;;19.05;48.90
65758;BME280;52495;52.208;5.158;2022-08-06T08:41:00;102801.53;;;19.22;49.17
65758;BME280;52495;52.208;5.158;2022-08-06T08:43:30;102806.06;;;19.15;50.05
65758;BME280;52495;52.208;5.158;2022-08-06T08:46:01;102810.28;;;19.22;50.66
65758;BME280;52495;52.208;5.158;2022-08-06T08:48:30;102816.16;;;18.91;50.76
65758;BME280;52495;52.208;5.158;2022-08-06T08:51:00;102802.47;;;19.19;50.46
65758;BME280;52495;52.208;5.158;2022-08-06T08:53:33;102806.94;;;19.16;50.80
65758;BME280;52495;52.208;5.158;2022-08-06T08:56:02;102809.56;;;19.14;50.82
65758;BME280;52495;52.208;5.158;2022-08-06T08:58:29;102810.16;;;19.27;51.15
65758;BME280;52495;52.208;5.158;2022-08-06T09:01:02;102806.81;;;19.58;49.84
65758;BME280;52495;52.208;5.158;2022-08-06T09:03:33;102810.81;;;19.37;51.30
65758;BME280;52495;52.208;5.158;2022-08-06T09:06:03;102808.91;;;19.45;50.89
65758;BME280;52495;52.208;5.158;2022-08-06T09:08:30;102804.19;;;19.60;50.56
65758;BME280;52495;52.208;5.158;2022-08-06T09:10:57;102804.75;;;19.73;50.38
65758;BME280;52495;52.208;5.158;2022-08-06T09:13:25;102806.97;;;19.90;49.80
65758;BME280;52495;52.208;5.158;2022-08-06T09:15:52;102810.69;;;20.15;48.45
65758;BME280;52495;52.208;5.158;2022-08-06T09:18:19;102804.50;;;20.18;48.38
65758;BME280;52495;52.208;5.158;2022-08-06T09:20:46;102813.22;;;20.19;46.53
65758;BME280;52495;52.208;5.158;2022-08-06T09:23:15;102818.59;;;20.14;46.36
65758;BME280;52495;52.208;5.158;2022-08-06T09:25:44;102814.38;;;20.08;46.62
65758;BME280;52495;52.208;5.158;2022-08-06T09:28:31;102816.59;;;20.24;46.67
65758;BME280;52495;52.208;5.158;2022-08-06T09:31:02;102809.97;;;20.42;46.79
65758;BME280;52495;52.208;5.158;2022-08-06T09:33:31;102818.81;;;20.39;46.63
65758;BME280;52495;52.208;5.158;2022-08-06T09:36:00;102816.88;;;20.46;46.85
65758;BME280;52495;52.208;5.158;2022-08-06T09:38:29;102815.75;;;20.55;46.49
65758;BME280;52495;52.208;5.158;2022-08-06T09:41:07;102812.84;;;20.66;45.43
65758;BME280;52495;52.208;5.158;2022-08-06T09:43:35;102817.13;;;20.68;46.27
65758;BME280;52495;52.208;5.158;2022-08-06T09:46:03;102815.91;;;20.50;46.44
65758;BME280;52495;52.208;5.158;2022-08-06T09:48:30;102822.81;;;20.53;46.96
65758;BME280;52495;52.208;5.158;2022-08-06T09:50:57;102814.03;;;20.54;47.37
65758;BME280;52495;52.208;5.158;2022-08-06T09:53:24;102810.50;;;20.55;47.48
65758;BME280;52495;52.208;5.158;2022-08-06T09:55:54;102816.22;;;20.69;47.37
65758;BME280;52495;52.208;5.158;2022-08-06T09:58:32;102811.69;;;20.76;47.13
65758;BME280;52495;52.208;5.158;2022-08-06T10:01:13;102818.41;;;20.22;47.45
65758;BME280;52495;52.208;5.158;2022-08-06T10:03:40;102816.91;;;19.75;49.25
65758;BME280;52495;52.208;5.158;2022-08-06T10:06:09;102822.03;;;19.80;49.53
65758;BME280;52495;52.208;5.158;2022-08-06T10:08:37;102825.25;;;19.93;49.34
65758;BME280;52495;52.208;5.158;2022-08-06T10:11:07;102827.88;;;19.55;50.18
65758;BME280;52495;52.208;5.158;2022-08-06T10:13:35;102831.88;;;19.70;49.90
65758;BME280;52495;52.208;5.158;2022-08-06T10:16:15;102831.00;;;19.32;51.04
65758;BME280;52495;52.208;5.158;2022-08-06T10:18:45;102826.66;;;19.32;51.33
65758;BME280;52495;52.208;5.158;2022-08-06T10:21:15;102824.34;;;19.56;50.87
65758;BME280;52495;52.208;5.158;2022-08-06T10:23:45;102832.06;;;19.64;50.14
65758;BME280;52495;52.208;5.158;2022-08-06T10:26:22;102828.34;;;19.73;49.67
65758;BME280;52495;52.208;5.158;2022-08-06T10:28:52;102831.88;;;19.70;49.60
65758;BME280;52495;52.208;5.158;2022-08-06T10:31:20;102819.31;;;19.84;49.08
65758;BME280;52495;52.208;5.158;2022-08-06T10:33:50;102826.31;;;19.84;48.85
65758;BME280;52495;52.208;5.158;2022-08-06T10:36:21;102821.16;;;19.81;48.40
65758;BME280;52495;52.208;5.158;2022-08-06T10:38:50;102817.53;;;19.88;48.35
65758;BME280;52495;52.208;5.158;2022-08-06T10:41:18;102808.19;;;20.11;48.30
65758;BME280;52495;52.208;5.158;2022-08-06T10:43:45;102809.13;;;20.41;47.52
65758;BME280;52495;52.208;5.158;2022-08-06T10:46:12;102816.22;;;20.69;46.84
65758;BME280;52495;52.208;5.158;2022-08-06T10:48:42;102807.59;;;20.97;45.72
65758;BME280;52495;52.208;5.158;2022-08-06T10:51:11;102805.91;;;21.25;45.23
65758;BME280;52495;52.208;5.158;2022-08-06T10:53:39;102810.47;;;21.46;44.80
65758;BME280;52495;52.208;5.158;2022-08-06T10:56:08;102812.75;;;21.57;44.47
65758;BME280;52495;52.208;5.158;2022-08-06T10:58:38;102804.31;;;21.47;44.28
65758;BME280;52495;52.208;5.158;2022-08-06T11:01:08;102806.25;;;21.41;44.69
65758;BME280;52495;52.208;5.158;2022-08-06T11:03:50;102816.31;;;20.98;44.79
65758;BME280;52495;52.208;5.158;2022-08-06T11:06:21;102815.25;;;21.05;45.55
65758;BME280;52495;52.208;5.158;2022-08-06T11:08:58;102809.78;;;20.83;46.13
65758;BME280;52495;52.208;5.158;2022-08-06T11:11:39;102808.84;;;20.52;46.96
65758;BME280;52495;52.208;5.158;2022-08-06T11:14:10;102819.38;;;20.51;46.93
65758;BME280;52495;52.208;5.158;2022-08-06T11:16:37;102814.75;;;20.27;47.45
65758;BME280;52495;52.208;5.158;2022-08-06T11:19:05;102815.22;;;20.43;47.14
65758;BME280;52495;52.208;5.158;2022-08-06T11:21:40;102806.47;;;20.43;46.91
65758;BME280;52495;52.208;5.158;2022-08-06T11:24:08;102812.19;;;20.26;46.10
65758;BME280;52495;52.208;5.158;2022-08-06T11:26:37;102807.69;;;20.31;45.94
65758;BME280;52495;52.208;5.158;2022-08-06T11:29:06;102806.31;;;20.49;45.33
65758;BME280;52495;52.208;5.158;2022-08-06T11:31:39;102801.00;;;20.51;44.45
65758;BME280;52495;52.208;5.158;2022-08-06T11:34:10;102809.59;;;20.57;44.85
65758;BME280;52495;52.208;5.158;2022-08-06T11:36:51;102805.63;;;20.74;44.67
65758;BME280;52495;52.208;5.158;2022-08-06T11:39:19;102809.69;;;20.53;44.09
65758;BME280;52495;52.208;5.158;2022-08-06T11:41:49;102798.16;;;20.90;43.40
65758;BME280;52495;52.208;5.158;2022-08-06T11:44:17;102793.34;;;21.34;43.12
65758;BME280;52495;52.208;5.158;2022-08-06T11:46:46;102790.47;;;21.42;43.05
65758;BME280;52495;52.208;5.158;2022-08-06T11:49:18;102791.22;;;21.46;42.36
65758;BME280;52495;52.208;5.158;2022-08-06T11:51:48;102792.59;;;21.58;42.43
65758;BME280;52495;52.208;5.158;2022-08-06T11:54:16;102787.88;;;21.69;41.78
65758;BME280;52495;52.208;5.158;2022-08-06T12:00:03;102782.25;;;22.31;40.77
65758;BME280;52495;52.208;5.158;2022-08-06T12:02:50;102779.78;;;22.51;40.66
65758;BME280;52495;52.208;5.158;2022-08-06T12:05:39;102780.94;;;22.68;39.63
65758;BME280;52495;52.208;5.158;2022-08-06T12:08:15;102776.91;;;22.81;37.87
65758;BME280;52495;52.208;5.158;2022-08-06T12:11:22;102771.63;;;22.59;38.67
65758;BME280;52495;52.208;5.158;2022-08-06T12:13:51;102771.53;;;22.37;38.53
65758;BME280;52495;52.208;5.158;2022-08-06T12:16:41;102782.72;;;21.91;40.18
65758;BME280;52495;52.208;5.158;2022-08-06T12:19:14;102778.25;;;21.68;41.14
65758;BME280;52495;52.208;5.158;2022-08-06T12:21:51;102787.03;;;21.12;41.42
65758;BME280;52495;52.208;5.158;2022-08-06T12:24:22;102776.69;;;21.05;41.31
65758;BME280;52495;52.208;5.158;2022-08-06T12:26:50;102768.34;;;21.21;41.46
65758;BME280;52495;52.208;5.158;2022-08-06T12:29:18;102776.19;;;21.22;41.30
65758;BME280;52495;52.208;5.158;2022-08-06T12:31:45;102770.88;;;21.24;41.56
65758;BME280;52495;52.208;5.158;2022-08-06T12:34:22;102765.09;;;21.41;41.42
65758;BME280;52495;52.208;5.158;2022-08-06T12:36:49;102763.59;;;21.61;41.29
65758;BME280;52495;52.208;5.158;2022-08-06T12:39:16;102762.06;;;21.80;40.94
65758;BME280;52495;52.208;5.158;2022-08-06T12:41:43;102761.13;;;22.08;40.16
65758;BME280;52495;52.208;5.158;2022-08-06T12:44:14;102752.41;;;22.32;39.78
65758;BME280;52495;52.208;5.158;2022-08-06T12:46:41;102754.53;;;22.69;39.70
65758;BME280;52495;52.208;5.158;2022-08-06T12:49:09;102748.75;;;22.83;38.93
65758;BME280;52495;52.208;5.158;2022-08-06T12:51:37;102743.06;;;22.48;39.21
65758;BME280;52495;52.208;5.158;2022-08-06T12:54:06;102747.97;;;22.57;39.27
65758;BME280;52495;52.208;5.158;2022-08-06T12:56:36;102751.38;;;22.59;38.87
65758;BME280;52495;52.208;5.158;2022-08-06T12:59:07;102754.38;;;22.50;38.84
65758;BME280;52495;52.208;5.158;2022-08-06T13:01:35;102745.50;;;22.53;38.64
65758;BME280;52495;52.208;5.158;2022-08-06T13:04:07;102740.38;;;22.72;38.37
65758;BME280;52495;52.208;5.158;2022-08-06T13:06:37;102740.59;;;22.89;38.52
65758;BME280;52495;52.208;5.158;2022-08-06T13:09:04;102737.47;;;22.80;38.05